sensor_id;sensor_type;location;lat;lon;timestamp;temperature;humidity
7046;DHT22;3564;53.326;10.356;2022-07-03T00:00:09;22.30;81.80
7046;DHT22;3564;53.326;10.356;2022-07-03T00:02:35;22.40;81.50
7046;DHT22;3564;53.326;10.356;2022-07-03T00:05:00;22.40;81.40
7046;DHT22;3564;53.326;10.356;2022-07-03T00:07:26;22.30;81.50
7046;DHT22;3564;53.326;10.356;2022-07-03T00:09:51;22.30;81.60
7046;DHT22;3564;53.326;10.356;2022-07-03T00:12:17;22.30;81.80
7046;DHT22;3564;53.326;10.356;2022-07-03T00:14:43;22.30;82.10
7046;DHT22;3564;53.326;10.356;2022-07-03T00:17:08;22.20;82.30
7046;DHT22;3564;53.326;10.356;2022-07-03T00:19:34;22.20;82.20
7046;DHT22;3564;53.326;10.356;2022-07-03T00:22:04;22.20;82.20
7046;DHT22;3564;53.326;10.356;2022-07-03T00:24:37;22.20;82.30
7046;DHT22;3564;53.326;10.356;2022-07-03T00:27:08;22.20;82.30
7046;DHT22;3564;53.326;10.356;2022-07-03T00:29:38;22.20;82.30
7046;DHT22;3564;53.326;10.356;2022-07-03T00:32:06;22.20;82.40
7046;DHT22;3564;53.326;10.356;2022-07-03T00:34:33;22.20;82.50
7046;DHT22;3564;53.326;10.356;2022-07-03T00:37:00;22.10;82.30
7046;DHT22;3564;53.326;10.356;2022-07-03T00:39:28;22.20;82.40
7046;DHT22;3564;53.326;10.356;2022-07-03T00:42:02;22.10;82.40
7046;DHT22;3564;53.326;10.356;2022-07-03T00:44:29;22.20;83.20
7046;DHT22;3564;53.326;10.356;2022-07-03T00:46:55;22.20;82.50
7046;DHT22;3564;53.326;10.356;2022-07-03T00:49:23;22.20;82.40
7046;DHT22;3564;53.326;10.356;2022-07-03T00:52:09;22.20;82.50
7046;DHT22;3564;53.326;10.356;2022-07-03T00:54:42;22.20;82.50
7046;DHT22;3564;53.326;10.356;2022-07-03T00:57:14;22.20;82.50
7046;DHT22;3564;53.326;10.356;2022-07-03T00:59:40;22.20;82.50
7046;DHT22;3564;53.326;10.356;2022-07-03T01:02:08;22.20;82.60
7046;DHT22;3564;53.326;10.356;2022-07-03T01:04:52;22.10;82.50
7046;DHT22;3564;53.326;10.356;2022-07-03T01:10:04;22.20;82.60
7046;DHT22;3564;53.326;10.356;2022-07-03T01:12:56;22.20;82.50
7046;DHT22;3564;53.326;10.356;2022-07-03T01:24:43;22.20;83.00
7046;DHT22;3564;53.326;10.356;2022-07-03T01:27:16;22.20;83.90
7046;DHT22;3564;53.326;10.356;2022-07-03T01:32:14;22.10;83.90
7046;DHT22;3564;53.326;10.356;2022-07-03T01:34:43;22.10;83.40
7046;DHT22;3564;53.326;10.356;2022-07-03T01:37:10;22.10;83.30
7046;DHT22;3564;53.326;10.356;2022-07-03T01:39:43;22.00;83.50
7046;DHT22;3564;53.326;10.356;2022-07-03T01:42:11;22.00;83.50
7046;DHT22;3564;53.326;10.356;2022-07-03T01:44:39;22.00;83.90
7046;DHT22;3564;53.326;10.356;2022-07-03T01:47:06;22.00;84.70
7046;DHT22;3564;53.326;10.356;2022-07-03T01:49:33;22.00;85.00
7046;DHT22;3564;53.326;10.356;2022-07-03T01:52:01;22.00;85.00
7046;DHT22;3564;53.326;10.356;2022-07-03T01:54:30;22.00;85.60
7046;DHT22;3564;53.326;10.356;2022-07-03T01:56:58;21.90;84.80
7046;DHT22;3564;53.326;10.356;2022-07-03T01:59:25;21.90;84.90
7046;DHT22;3564;53.326;10.356;2022-07-03T02:04:59;21.90;85.00
7046;DHT22;3564;53.326;10.356;2022-07-03T02:07:38;21.90;84.70
7046;DHT22;3564;53.326;10.356;2022-07-03T02:10:06;21.80;84.30
7046;DHT22;3564;53.326;10.356;2022-07-03T02:12:51;21.80;84.10
7046;DHT22;3564;53.326;10.356;2022-07-03T02:15:30;21.80;83.80
7046;DHT22;3564;53.326;10.356;2022-07-03T02:17:58;21.70;83.50
7046;DHT22;3564;53.326;10.356;2022-07-03T02:20:25;21.70;83.20
7046;DHT22;3564;53.326;10.356;2022-07-03T02:22:59;21.70;83.20
7046;DHT22;3564;53.326;10.356;2022-07-03T02:25:36;21.70;83.60
7046;DHT22;3564;53.326;10.356;2022-07-03T02:28:03;21.70;84.10
7046;DHT22;3564;53.326;10.356;2022-07-03T02:30:30;21.60;83.50
7046;DHT22;3564;53.326;10.356;2022-07-03T02:32:59;21.60;83.20
7046;DHT22;3564;53.326;10.356;2022-07-03T02:35:31;21.60;83.50
7046;DHT22;3564;53.326;10.356;2022-07-03T02:38:20;21.60;83.10
7046;DHT22;3564;53.326;10.356;2022-07-03T02:51:59;21.40;83.40
7046;DHT22;3564;53.326;10.356;2022-07-03T02:54:33;21.40;82.90
7046;DHT22;3564;53.326;10.356;2022-07-03T02:57:08;21.30;83.40
7046;DHT22;3564;53.326;10.356;2022-07-03T03:00:01;21.30;84.50
7046;DHT22;3564;53.326;10.356;2022-07-03T03:10:40;21.10;83.90
7046;DHT22;3564;53.326;10.356;2022-07-03T03:13:11;21.10;83.80
7046;DHT22;3564;53.326;10.356;2022-07-03T03:15:38;21.10;83.90
7046;DHT22;3564;53.326;10.356;2022-07-03T03:18:26;21.10;83.40
7046;DHT22;3564;53.326;10.356;2022-07-03T03:20:58;21.10;83.90
7046;DHT22;3564;53.326;10.356;2022-07-03T03:26:03;21.00;83.50
7046;DHT22;3564;53.326;10.356;2022-07-03T03:28:29;21.00;83.50
7046;DHT22;3564;53.326;10.356;2022-07-03T03:30:55;21.00;83.40
7046;DHT22;3564;53.326;10.356;2022-07-03T03:33:22;21.00;83.20
7046;DHT22;3564;53.326;10.356;2022-07-03T03:35:48;21.00;83.10
7046;DHT22;3564;53.326;10.356;2022-07-03T03:38:13;21.00;83.10
7046;DHT22;3564;53.326;10.356;2022-07-03T03:40:40;21.00;83.60
7046;DHT22;3564;53.326;10.356;2022-07-03T03:43:05;21.00;83.50
7046;DHT22;3564;53.326;10.356;2022-07-03T03:45:31;21.00;83.80
7046;DHT22;3564;53.326;10.356;2022-07-03T03:47:57;21.00;83.60
7046;DHT22;3564;53.326;10.356;2022-07-03T03:50:23;21.00;83.60
7046;DHT22;3564;53.326;10.356;2022-07-03T03:52:48;21.00;84.10
7046;DHT22;3564;53.326;10.356;2022-07-03T03:55:15;21.00;84.00
7046;DHT22;3564;53.326;10.356;2022-07-03T03:57:40;21.00;83.50
7046;DHT22;3564;53.326;10.356;2022-07-03T04:00:07;21.00;83.30
7046;DHT22;3564;53.326;10.356;2022-07-03T04:02:33;20.90;83.00
7046;DHT22;3564;53.326;10.356;2022-07-03T04:04:58;20.90;83.00
7046;DHT22;3564;53.326;10.356;2022-07-03T04:07:24;20.90;83.40
7046;DHT22;3564;53.326;10.356;2022-07-03T04:09:49;20.90;83.20
7046;DHT22;3564;53.326;10.356;2022-07-03T04:12:15;20.90;83.30
7046;DHT22;3564;53.326;10.356;2022-07-03T04:14:41;20.90;83.50
7046;DHT22;3564;53.326;10.356;2022-07-03T04:17:06;20.90;83.50
7046;DHT22;3564;53.326;10.356;2022-07-03T04:19:32;20.80;83.60
7046;DHT22;3564;53.326;10.356;2022-07-03T04:21:58;20.80;83.80
7046;DHT22;3564;53.326;10.356;2022-07-03T04:24:24;20.80;84.00
7046;DHT22;3564;53.326;10.356;2022-07-03T04:26:49;20.80;84.10
7046;DHT22;3564;53.326;10.356;2022-07-03T04:29:15;20.90;84.40
7046;DHT22;3564;53.326;10.356;2022-07-03T04:31:41;20.80;84.20
7046;DHT22;3564;53.326;10.356;2022-07-03T04:34:07;20.90;84.30
7046;DHT22;3564;53.326;10.356;2022-07-03T04:36:32;20.80;84.30
7046;DHT22;3564;53.326;10.356;2022-07-03T04:38:58;20.80;84.50
7046;DHT22;3564;53.326;10.356;2022-07-03T04:41:23;20.90;84.60
7046;DHT22;3564;53.326;10.356;2022-07-03T04:43:49;20.90;84.80
7046;DHT22;3564;53.326;10.356;2022-07-03T04:46:15;20.90;85.00
7046;DHT22;3564;53.326;10.356;2022-07-03T04:48:40;20.90;85.10
7046;DHT22;3564;53.326;10.356;2022-07-03T04:51:06;21.00;85.30
7046;DHT22;3564;53.326;10.356;2022-07-03T04:53:32;21.00;85.30
7046;DHT22;3564;53.326;10.356;2022-07-03T04:55:57;21.00;85.50
7046;DHT22;3564;53.326;10.356;2022-07-03T04:58:23;21.10;86.40
7046;DHT22;3564;53.326;10.356;2022-07-03T05:00:49;21.10;86.20
7046;DHT22;3564;53.326;10.356;2022-07-03T05:03:14;21.10;86.10
7046;DHT22;3564;53.326;10.356;2022-07-03T05:05:40;21.20;86.20
7046;DHT22;3564;53.326;10.356;2022-07-03T05:08:06;21.20;86.20
7046;DHT22;3564;53.326;10.356;2022-07-03T05:10:31;21.20;86.20
7046;DHT22;3564;53.326;10.356;2022-07-03T05:12:57;21.30;86.10
7046;DHT22;3564;53.326;10.356;2022-07-03T05:15:22;21.30;85.90
7046;DHT22;3564;53.326;10.356;2022-07-03T05:17:49;21.40;85.70
7046;DHT22;3564;53.326;10.356;2022-07-03T05:20:14;21.40;85.20
7046;DHT22;3564;53.326;10.356;2022-07-03T05:22:49;21.50;85.30
7046;DHT22;3564;53.326;10.356;2022-07-03T05:25:17;21.50;85.10
7046;DHT22;3564;53.326;10.356;2022-07-03T05:27:43;21.60;84.60
7046;DHT22;3564;53.326;10.356;2022-07-03T05:30:08;21.60;84.20
7046;DHT22;3564;53.326;10.356;2022-07-03T05:32:35;21.70;83.70
7046;DHT22;3564;53.326;10.356;2022-07-03T05:35:00;21.80;83.80
7046;DHT22;3564;53.326;10.356;2022-07-03T05:37:26;21.80;84.20
7046;DHT22;3564;53.326;10.356;2022-07-03T05:39:52;21.90;84.60
7046;DHT22;3564;53.326;10.356;2022-07-03T05:42:18;21.90;84.00
7046;DHT22;3564;53.326;10.356;2022-07-03T05:44:43;21.90;83.90
7046;DHT22;3564;53.326;10.356;2022-07-03T05:47:09;22.00;84.20
7046;DHT22;3564;53.326;10.356;2022-07-03T05:49:34;22.00;83.80
7046;DHT22;3564;53.326;10.356;2022-07-03T05:52:06;22.00;83.20
7046;DHT22;3564;53.326;10.356;2022-07-03T05:54:32;22.00;83.70
7046;DHT22;3564;53.326;10.356;2022-07-03T05:56:57;22.00;84.30
7046;DHT22;3564;53.326;10.356;2022-07-03T05:59:23;22.10;85.00
7046;DHT22;3564;53.326;10.356;2022-07-03T06:01:48;22.10;84.90
7046;DHT22;3564;53.326;10.356;2022-07-03T06:04:14;22.10;85.20
7046;DHT22;3564;53.326;10.356;2022-07-03T06:06:39;22.10;85.30
7046;DHT22;3564;53.326;10.356;2022-07-03T06:09:05;22.20;85.20
7046;DHT22;3564;53.326;10.356;2022-07-03T06:11:31;22.20;85.00
7046;DHT22;3564;53.326;10.356;2022-07-03T06:13:56;22.20;84.80
7046;DHT22;3564;53.326;10.356;2022-07-03T06:16:22;22.30;85.00
7046;DHT22;3564;53.326;10.356;2022-07-03T06:18:47;22.30;85.00
7046;DHT22;3564;53.326;10.356;2022-07-03T06:21:14;22.40;84.20
7046;DHT22;3564;53.326;10.356;2022-07-03T06:23:40;22.40;83.10
7046;DHT22;3564;53.326;10.356;2022-07-03T06:26:05;22.50;82.40
7046;DHT22;3564;53.326;10.356;2022-07-03T06:28:31;22.50;82.20
7046;DHT22;3564;53.326;10.356;2022-07-03T06:30:56;22.60;82.50
7046;DHT22;3564;53.326;10.356;2022-07-03T06:33:22;22.70;82.80
7046;DHT22;3564;53.326;10.356;2022-07-03T06:35:48;22.80;83.00
7046;DHT22;3564;53.326;10.356;2022-07-03T06:38:14;22.80;83.10
7046;DHT22;3564;53.326;10.356;2022-07-03T06:40:40;22.90;83.20
7046;DHT22;3564;53.326;10.356;2022-07-03T06:43:05;22.90;82.90
7046;DHT22;3564;53.326;10.356;2022-07-03T06:45:31;23.00;82.90
7046;DHT22;3564;53.326;10.356;2022-07-03T06:47:56;23.00;82.90
7046;DHT22;3564;53.326;10.356;2022-07-03T06:50:22;23.00;82.80
7046;DHT22;3564;53.326;10.356;2022-07-03T06:52:48;23.00;82.70
7046;DHT22;3564;53.326;10.356;2022-07-03T06:55:13;23.10;82.80
7046;DHT22;3564;53.326;10.356;2022-07-03T06:57:39;23.10;82.80
7046;DHT22;3564;53.326;10.356;2022-07-03T07:00:06;23.10;82.60
7046;DHT22;3564;53.326;10.356;2022-07-03T07:02:33;23.10;82.50
7046;DHT22;3564;53.326;10.356;2022-07-03T07:04:58;23.10;82.70
7046;DHT22;3564;53.326;10.356;2022-07-03T07:07:24;23.20;83.10
7046;DHT22;3564;53.326;10.356;2022-07-03T07:09:49;23.20;83.70
7046;DHT22;3564;53.326;10.356;2022-07-03T07:12:15;23.20;83.60
7046;DHT22;3564;53.326;10.356;2022-07-03T07:14:41;23.20;83.20
7046;DHT22;3564;53.326;10.356;2022-07-03T07:17:06;23.20;82.90
7046;DHT22;3564;53.326;10.356;2022-07-03T07:19:32;23.30;82.80
7046;DHT22;3564;53.326;10.356;2022-07-03T07:21:58;23.30;82.50
7046;DHT22;3564;53.326;10.356;2022-07-03T07:24:23;23.40;82.60
7046;DHT22;3564;53.326;10.356;2022-07-03T07:26:49;23.40;83.10
7046;DHT22;3564;53.326;10.356;2022-07-03T07:29:14;23.50;83.50
7046;DHT22;3564;53.326;10.356;2022-07-03T07:31:40;23.60;83.70
7046;DHT22;3564;53.326;10.356;2022-07-03T07:34:05;23.60;83.90
7046;DHT22;3564;53.326;10.356;2022-07-03T07:36:32;23.70;84.10
7046;DHT22;3564;53.326;10.356;2022-07-03T07:38:58;23.80;84.10
7046;DHT22;3564;53.326;10.356;2022-07-03T07:41:23;23.90;83.90
7046;DHT22;3564;53.326;10.356;2022-07-03T07:43:49;23.90;83.50
7046;DHT22;3564;53.326;10.356;2022-07-03T07:46:16;24.00;83.50
7046;DHT22;3564;53.326;10.356;2022-07-03T07:48:41;24.10;83.40
7046;DHT22;3564;53.326;10.356;2022-07-03T07:51:07;24.10;83.90
7046;DHT22;3564;53.326;10.356;2022-07-03T07:53:32;24.20;83.70
7046;DHT22;3564;53.326;10.356;2022-07-03T07:55:58;24.30;82.90
7046;DHT22;3564;53.326;10.356;2022-07-03T07:58:24;24.40;81.90
7046;DHT22;3564;53.326;10.356;2022-07-03T08:00:49;24.50;82.50
7046;DHT22;3564;53.326;10.356;2022-07-03T08:03:33;24.50;82.20
7046;DHT22;3564;53.326;10.356;2022-07-03T08:06:18;24.60;82.00
7046;DHT22;3564;53.326;10.356;2022-07-03T08:08:43;24.60;81.30
7046;DHT22;3564;53.326;10.356;2022-07-03T08:11:09;24.70;81.70
7046;DHT22;3564;53.326;10.356;2022-07-03T08:13:35;24.80;82.00
7046;DHT22;3564;53.326;10.356;2022-07-03T08:16:00;24.80;82.00
7046;DHT22;3564;53.326;10.356;2022-07-03T08:18:26;24.80;82.10
7046;DHT22;3564;53.326;10.356;2022-07-03T08:20:52;24.90;81.20
7046;DHT22;3564;53.326;10.356;2022-07-03T08:23:17;25.00;81.00
7046;DHT22;3564;53.326;10.356;2022-07-03T08:25:43;25.00;81.40
7046;DHT22;3564;53.326;10.356;2022-07-03T08:28:09;25.10;81.80
7046;DHT22;3564;53.326;10.356;2022-07-03T08:30:34;25.20;81.70
7046;DHT22;3564;53.326;10.356;2022-07-03T08:33:00;25.20;81.40
7046;DHT22;3564;53.326;10.356;2022-07-03T08:35:27;25.30;81.20
7046;DHT22;3564;53.326;10.356;2022-07-03T08:37:52;25.40;80.90
7046;DHT22;3564;53.326;10.356;2022-07-03T08:40:19;25.40;80.90
7046;DHT22;3564;53.326;10.356;2022-07-03T08:42:56;25.50;80.80
7046;DHT22;3564;53.326;10.356;2022-07-03T08:45:23;25.50;80.40
7046;DHT22;3564;53.326;10.356;2022-07-03T08:47:50;25.60;80.80
7046;DHT22;3564;53.326;10.356;2022-07-03T08:50:17;25.70;80.90
7046;DHT22;3564;53.326;10.356;2022-07-03T08:52:44;25.80;80.70
7046;DHT22;3564;53.326;10.356;2022-07-03T08:55:12;25.80;79.30
7046;DHT22;3564;53.326;10.356;2022-07-03T08:57:40;25.90;79.10
7046;DHT22;3564;53.326;10.356;2022-07-03T09:00:15;25.90;78.90
7046;DHT22;3564;53.326;10.356;2022-07-03T09:02:43;26.00;78.40
7046;DHT22;3564;53.326;10.356;2022-07-03T09:05:10;26.10;78.40
7046;DHT22;3564;53.326;10.356;2022-07-03T09:07:38;26.10;78.50
7046;DHT22;3564;53.326;10.356;2022-07-03T09:10:06;26.20;78.30
7046;DHT22;3564;53.326;10.356;2022-07-03T09:12:32;26.30;78.00
7046;DHT22;3564;53.326;10.356;2022-07-03T09:15:07;26.30;78.40
7046;DHT22;3564;53.326;10.356;2022-07-03T09:17:33;26.40;77.30
7046;DHT22;3564;53.326;10.356;2022-07-03T09:20:04;26.40;77.40
7046;DHT22;3564;53.326;10.356;2022-07-03T09:22:36;26.40;77.30
7046;DHT22;3564;53.326;10.356;2022-07-03T09:25:12;26.40;77.30
7046;DHT22;3564;53.326;10.356;2022-07-03T09:27:50;26.40;76.70
7046;DHT22;3564;53.326;10.356;2022-07-03T09:30:16;26.50;77.00
7046;DHT22;3564;53.326;10.356;2022-07-03T09:32:44;26.50;77.10
7046;DHT22;3564;53.326;10.356;2022-07-03T09:35:27;26.60;77.50
7046;DHT22;3564;53.326;10.356;2022-07-03T09:37:58;26.60;77.40
7046;DHT22;3564;53.326;10.356;2022-07-03T09:40:26;26.70;78.00
7046;DHT22;3564;53.326;10.356;2022-07-03T09:43:03;26.70;78.50
7046;DHT22;3564;53.326;10.356;2022-07-03T09:45:52;26.80;78.70
7046;DHT22;3564;53.326;10.356;2022-07-03T09:48:33;26.90;78.70
7046;DHT22;3564;53.326;10.356;2022-07-03T09:56:16;27.10;79.00
7046;DHT22;3564;53.326;10.356;2022-07-03T09:58:59;27.20;77.00
7046;DHT22;3564;53.326;10.356;2022-07-03T10:01:25;27.30;76.90
7046;DHT22;3564;53.326;10.356;2022-07-03T10:03:51;27.30;77.10
7046;DHT22;3564;53.326;10.356;2022-07-03T10:06:16;27.40;77.70
7046;DHT22;3564;53.326;10.356;2022-07-03T10:08:42;27.40;77.30
7046;DHT22;3564;53.326;10.356;2022-07-03T10:11:09;27.50;76.70
7046;DHT22;3564;53.326;10.356;2022-07-03T10:13:40;27.60;76.10
7046;DHT22;3564;53.326;10.356;2022-07-03T10:16:06;27.60;76.50
7046;DHT22;3564;53.326;10.356;2022-07-03T10:18:36;27.70;77.00
7046;DHT22;3564;53.326;10.356;2022-07-03T10:21:07;27.70;76.60
7046;DHT22;3564;53.326;10.356;2022-07-03T10:23:33;27.70;75.80
7046;DHT22;3564;53.326;10.356;2022-07-03T10:25:59;27.80;76.50
7046;DHT22;3564;53.326;10.356;2022-07-03T10:28:24;27.80;76.10
7046;DHT22;3564;53.326;10.356;2022-07-03T10:30:50;27.90;76.50
7046;DHT22;3564;53.326;10.356;2022-07-03T10:33:17;28.00;75.40
7046;DHT22;3564;53.326;10.356;2022-07-03T10:35:47;28.00;75.00
7046;DHT22;3564;53.326;10.356;2022-07-03T10:38:37;28.10;74.80
7046;DHT22;3564;53.326;10.356;2022-07-03T10:41:16;28.20;74.90
7046;DHT22;3564;53.326;10.356;2022-07-03T10:44:02;28.30;74.20
7046;DHT22;3564;53.326;10.356;2022-07-03T10:46:46;28.30;74.90
7046;DHT22;3564;53.326;10.356;2022-07-03T10:49:13;28.40;74.50
7046;DHT22;3564;53.326;10.356;2022-07-03T11:02:39;28.60;74.10
7046;DHT22;3564;53.326;10.356;2022-07-03T11:05:15;28.60;74.10
7046;DHT22;3564;53.326;10.356;2022-07-03T11:15:34;28.70;72.50
7046;DHT22;3564;53.326;10.356;2022-07-03T11:18:10;28.70;73.10
7046;DHT22;3564;53.326;10.356;2022-07-03T11:21:41;28.80;73.40
7046;DHT22;3564;53.326;10.356;2022-07-03T11:26:23;28.90;71.90
7046;DHT22;3564;53.326;10.356;2022-07-03T11:28:51;28.90;71.90
7046;DHT22;3564;53.326;10.356;2022-07-03T11:31:18;29.00;72.30
7046;DHT22;3564;53.326;10.356;2022-07-03T11:41:27;29.10;71.70
7046;DHT22;3564;53.326;10.356;2022-07-03T11:44:00;29.10;69.70
7046;DHT22;3564;53.326;10.356;2022-07-03T11:46:29;29.10;68.80
7046;DHT22;3564;53.326;10.356;2022-07-03T11:49:12;29.00;69.10
7046;DHT22;3564;53.326;10.356;2022-07-03T11:51:40;28.90;68.70
7046;DHT22;3564;53.326;10.356;2022-07-03T11:54:09;28.90;68.20
7046;DHT22;3564;53.326;10.356;2022-07-03T11:56:36;28.80;69.30
7046;DHT22;3564;53.326;10.356;2022-07-03T11:59:04;28.80;70.40
7046;DHT22;3564;53.326;10.356;2022-07-03T12:01:35;28.80;72.10
7046;DHT22;3564;53.326;10.356;2022-07-03T12:09:29;28.90;71.30
7046;DHT22;3564;53.326;10.356;2022-07-03T12:17:09;29.10;70.10
7046;DHT22;3564;53.326;10.356;2022-07-03T12:19:35;29.20;69.60
7046;DHT22;3564;53.326;10.356;2022-07-03T12:22:02;29.20;69.30
7046;DHT22;3564;53.326;10.356;2022-07-03T12:24:28;29.30;68.70
7046;DHT22;3564;53.326;10.356;2022-07-03T12:26:54;29.30;68.10
7046;DHT22;3564;53.326;10.356;2022-07-03T12:29:19;29.40;67.10
7046;DHT22;3564;53.326;10.356;2022-07-03T12:31:46;29.40;67.90
7046;DHT22;3564;53.326;10.356;2022-07-03T12:34:14;29.40;68.70
7046;DHT22;3564;53.326;10.356;2022-07-03T12:36:54;29.40;68.70
7046;DHT22;3564;53.326;10.356;2022-07-03T12:39:21;29.40;68.90
7046;DHT22;3564;53.326;10.356;2022-07-03T12:41:46;29.50;68.80
7046;DHT22;3564;53.326;10.356;2022-07-03T12:44:12;29.50;68.00
7046;DHT22;3564;53.326;10.356;2022-07-03T12:46:43;29.60;68.80
7046;DHT22;3564;53.326;10.356;2022-07-03T12:49:10;29.70;69.10
7046;DHT22;3564;53.326;10.356;2022-07-03T12:51:45;29.70;67.00
7046;DHT22;3564;53.326;10.356;2022-07-03T12:54:31;29.80;67.70
7046;DHT22;3564;53.326;10.356;2022-07-03T12:57:09;29.90;69.10
7046;DHT22;3564;53.326;10.356;2022-07-03T13:00:13;29.80;69.00
7046;DHT22;3564;53.326;10.356;2022-07-03T13:02:44;29.90;68.70
7046;DHT22;3564;53.326;10.356;2022-07-03T13:05:20;30.00;68.50
7046;DHT22;3564;53.326;10.356;2022-07-03T13:07:48;30.00;68.10
7046;DHT22;3564;53.326;10.356;2022-07-03T13:10:15;30.00;67.90
7046;DHT22;3564;53.326;10.356;2022-07-03T13:12:53;30.00;67.80
7046;DHT22;3564;53.326;10.356;2022-07-03T13:15:23;30.00;68.70
7046;DHT22;3564;53.326;10.356;2022-07-03T13:17:58;30.00;68.70
7046;DHT22;3564;53.326;10.356;2022-07-03T13:20:26;30.00;68.20
7046;DHT22;3564;53.326;10.356;2022-07-03T13:22:54;29.90;67.10
7046;DHT22;3564;53.326;10.356;2022-07-03T13:25:21;29.90;67.40
7046;DHT22;3564;53.326;10.356;2022-07-03T13:27:46;29.90;67.90
7046;DHT22;3564;53.326;10.356;2022-07-03T13:30:13;29.90;67.50
7046;DHT22;3564;53.326;10.356;2022-07-03T13:32:38;29.90;67.40
7046;DHT22;3564;53.326;10.356;2022-07-03T13:35:05;29.90;67.90
7046;DHT22;3564;53.326;10.356;2022-07-03T13:37:31;29.90;67.30
7046;DHT22;3564;53.326;10.356;2022-07-03T13:39:56;30.00;68.00
7046;DHT22;3564;53.326;10.356;2022-07-03T13:42:22;30.00;67.80
7046;DHT22;3564;53.326;10.356;2022-07-03T13:44:47;30.10;68.40
7046;DHT22;3564;53.326;10.356;2022-07-03T13:47:15;30.10;68.30
7046;DHT22;3564;53.326;10.356;2022-07-03T13:49:41;30.20;68.30
7046;DHT22;3564;53.326;10.356;2022-07-03T13:52:06;30.20;68.80
7046;DHT22;3564;53.326;10.356;2022-07-03T13:54:32;30.30;68.70
7046;DHT22;3564;53.326;10.356;2022-07-03T13:56:58;30.40;68.40
7046;DHT22;3564;53.326;10.356;2022-07-03T13:59:23;30.40;67.20
7046;DHT22;3564;53.326;10.356;2022-07-03T14:01:49;30.40;66.30
7046;DHT22;3564;53.326;10.356;2022-07-03T14:04:14;30.40;66.60
7046;DHT22;3564;53.326;10.356;2022-07-03T14:06:40;30.40;67.50
7046;DHT22;3564;53.326;10.356;2022-07-03T14:09:11;30.40;67.70
7046;DHT22;3564;53.326;10.356;2022-07-03T14:11:36;30.50;65.80
7046;DHT22;3564;53.326;10.356;2022-07-03T14:14:02;30.50;66.20
7046;DHT22;3564;53.326;10.356;2022-07-03T14:16:27;30.60;65.30
7046;DHT22;3564;53.326;10.356;2022-07-03T14:18:53;30.60;66.00
7046;DHT22;3564;53.326;10.356;2022-07-03T14:21:19;30.60;66.90
7046;DHT22;3564;53.326;10.356;2022-07-03T14:23:44;30.60;67.00
7046;DHT22;3564;53.326;10.356;2022-07-03T14:26:10;30.70;66.00
7046;DHT22;3564;53.326;10.356;2022-07-03T14:28:35;30.70;66.50
7046;DHT22;3564;53.326;10.356;2022-07-03T14:31:19;30.80;66.40
7046;DHT22;3564;53.326;10.356;2022-07-03T14:33:45;30.90;65.50
7046;DHT22;3564;53.326;10.356;2022-07-03T14:36:12;31.00;64.40
7046;DHT22;3564;53.326;10.356;2022-07-03T14:38:38;31.00;64.80
7046;DHT22;3564;53.326;10.356;2022-07-03T14:41:03;31.10;65.70
7046;DHT22;3564;53.326;10.356;2022-07-03T14:43:29;31.30;65.60
7046;DHT22;3564;53.326;10.356;2022-07-03T14:45:55;31.50;66.00
7046;DHT22;3564;53.326;10.356;2022-07-03T14:48:21;31.70;64.10
7046;DHT22;3564;53.326;10.356;2022-07-03T14:50:47;31.90;64.60
7046;DHT22;3564;53.326;10.356;2022-07-03T14:53:13;32.00;64.30
7046;DHT22;3564;53.326;10.356;2022-07-03T14:55:40;32.20;63.90
7046;DHT22;3564;53.326;10.356;2022-07-03T15:00:45;32.50;62.90
7046;DHT22;3564;53.326;10.356;2022-07-03T15:03:28;32.60;63.30
7046;DHT22;3564;53.326;10.356;2022-07-03T15:05:55;32.70;61.90
7046;DHT22;3564;53.326;10.356;2022-07-03T15:10:54;32.90;62.10
7046;DHT22;3564;53.326;10.356;2022-07-03T15:13:20;33.00;61.60
7046;DHT22;3564;53.326;10.356;2022-07-03T15:15:48;33.20;61.00
7046;DHT22;3564;53.326;10.356;2022-07-03T15:18:19;33.20;61.10
7046;DHT22;3564;53.326;10.356;2022-07-03T15:20:46;33.30;60.50
7046;DHT22;3564;53.326;10.356;2022-07-03T15:23:12;33.40;60.40
7046;DHT22;3564;53.326;10.356;2022-07-03T15:25:39;33.40;60.80
7046;DHT22;3564;53.326;10.356;2022-07-03T15:28:08;33.50;61.30
7046;DHT22;3564;53.326;10.356;2022-07-03T15:30:38;33.60;61.10
7046;DHT22;3564;53.326;10.356;2022-07-03T15:33:03;33.60;61.70
7046;DHT22;3564;53.326;10.356;2022-07-03T15:35:31;33.70;61.60
7046;DHT22;3564;53.326;10.356;2022-07-03T15:38:11;33.80;62.60
7046;DHT22;3564;53.326;10.356;2022-07-03T15:40:46;33.90;61.60
7046;DHT22;3564;53.326;10.356;2022-07-03T15:43:36;34.00;62.10
7046;DHT22;3564;53.326;10.356;2022-07-03T15:46:51;34.10;61.30
7046;DHT22;3564;53.326;10.356;2022-07-03T15:49:30;34.30;61.40
7046;DHT22;3564;53.326;10.356;2022-07-03T15:52:06;34.40;59.40
7046;DHT22;3564;53.326;10.356;2022-07-03T16:00:18;34.50;59.60
7046;DHT22;3564;53.326;10.356;2022-07-03T16:02:56;34.40;59.50
7046;DHT22;3564;53.326;10.356;2022-07-03T16:05:32;34.40;59.80
7046;DHT22;3564;53.326;10.356;2022-07-03T16:08:01;34.50;60.70
7046;DHT22;3564;53.326;10.356;2022-07-03T16:10:29;34.50;58.90
7046;DHT22;3564;53.326;10.356;2022-07-03T16:12:57;34.30;59.20
7046;DHT22;3564;53.326;10.356;2022-07-03T16:15:26;34.10;60.20
7046;DHT22;3564;53.326;10.356;2022-07-03T16:17:54;33.90;60.10
7046;DHT22;3564;53.326;10.356;2022-07-03T16:20:25;33.60;60.20
7046;DHT22;3564;53.326;10.356;2022-07-03T16:22:53;33.40;60.80
7046;DHT22;3564;53.326;10.356;2022-07-03T16:25:20;33.10;61.40
7046;DHT22;3564;53.326;10.356;2022-07-03T16:27:46;32.90;61.20
7046;DHT22;3564;53.326;10.356;2022-07-03T16:30:11;32.70;61.80
7046;DHT22;3564;53.326;10.356;2022-07-03T16:32:39;32.50;62.00
7046;DHT22;3564;53.326;10.356;2022-07-03T16:37:58;32.20;62.30
7046;DHT22;3564;53.326;10.356;2022-07-03T16:40:26;32.10;63.40
7046;DHT22;3564;53.326;10.356;2022-07-03T16:42:52;32.10;62.10
7046;DHT22;3564;53.326;10.356;2022-07-03T16:45:19;32.30;63.10
7046;DHT22;3564;53.326;10.356;2022-07-03T16:47:48;32.50;64.80
7046;DHT22;3564;53.326;10.356;2022-07-03T16:50:34;32.70;64.90
7046;DHT22;3564;53.326;10.356;2022-07-03T16:52:59;33.00;64.80
7046;DHT22;3564;53.326;10.356;2022-07-03T16:55:25;33.20;64.90
7046;DHT22;3564;53.326;10.356;2022-07-03T16:57:56;33.60;65.10
7046;DHT22;3564;53.326;10.356;2022-07-03T17:00:30;33.90;63.90
7046;DHT22;3564;53.326;10.356;2022-07-03T17:02:56;34.10;63.90
7046;DHT22;3564;53.326;10.356;2022-07-03T17:05:24;34.30;63.50
7046;DHT22;3564;53.326;10.356;2022-07-03T17:07:52;34.30;63.70
7046;DHT22;3564;53.326;10.356;2022-07-03T17:10:21;34.20;63.90
7046;DHT22;3564;53.326;10.356;2022-07-03T17:12:51;33.80;63.70
7046;DHT22;3564;53.326;10.356;2022-07-03T17:15:19;33.30;64.20
7046;DHT22;3564;53.326;10.356;2022-07-03T17:17:56;32.90;65.20
7046;DHT22;3564;53.326;10.356;2022-07-03T17:20:25;32.40;65.60
7046;DHT22;3564;53.326;10.356;2022-07-03T17:22:57;31.90;65.90
7046;DHT22;3564;53.326;10.356;2022-07-03T17:25:26;31.40;66.50
7046;DHT22;3564;53.326;10.356;2022-07-03T17:27:57;31.00;67.10
7046;DHT22;3564;53.326;10.356;2022-07-03T17:32:55;30.30;68.40
7046;DHT22;3564;53.326;10.356;2022-07-03T17:35:26;30.00;69.00